Time;durP1;ratioP1;P1;durP2;ratioP2;P2;SDS_P1;SDS_P2;PMS_P1;PMS_P2;Temp;Humidity;BMP_temperature;BMP_pressure;BME280_temperature;BME280_humidity;BME280_pressure;Samples;Min_cycle;Max_cycle;Signal;HPM_P1;HPM_P2
2023/05/22 00:01:05;;;;;;;;;;;;;;;14.82;100.00;95950.69;5031994;28;19933;-91
2023/05/22 00:03:32;;;;;;;;;;;;;;;14.69;99.93;95952.03;5047696;28;19952;-90
2023/05/22 00:05:59;;;;;;;;;;;;;;;14.69;99.68;95948.50;5032760;28;19962;-90
2023/05/22 00:08:26;;;;;;;;;;;;;;;14.70;100.00;95941.97;5021806;28;19925;-90
2023/05/22 00:10:54;;;;;;;;;;;;;;;14.66;100.00;95946.28;5038860;28;20027;-91
2023/05/22 00:13:21;;;;;;;;;;;;;;;14.60;100.00;95948.19;5046533;28;19929;-90
2023/05/22 00:15:47;;;;;;;;;;;;;;;14.55;100.00;95944.59;5041820;28;20000;-91
2023/05/22 00:18:14;;;;;;;;;;;;;;;14.55;100.00;95955.47;5043626;28;19926;-91
2023/05/22 00:20:45;;;;;;;;;;;;;;;14.53;100.00;95958.47;5031204;28;19948;-91
2023/05/22 00:23:12;;;;;;;;;;;;;;;14.54;100.00;95954.69;5044471;28;20012;-92
2023/05/22 00:25:39;;;;;;;;;;;;;;;14.53;100.00;95957.66;5031448;28;20039;-90
2023/05/22 00:28:07;;;;;;;;;;;;;;;14.48;100.00;95958.44;5027404;28;19925;-90
2023/05/22 00:30:34;;;;;;;;;;;;;;;14.49;100.00;95964.69;5045708;28;19932;-90
2023/05/22 00:33:01;;;;;;;;;;;;;;;14.51;100.00;95965.25;5046363;28;19925;-91
2023/05/22 00:35:28;;;;;;;;;;;;;;;14.51;100.00;95959.81;5026188;28;19932;-90
2023/05/22 00:37:56;;;;;;;;;;;;;;;14.45;100.00;95960.88;5022507;28;19929;-93
2023/05/22 00:40:23;;;;;;;;;;;;;;;14.29;100.00;95963.47;5027278;28;19932;-89
2023/05/22 00:42:49;;;;;;;;;;;;;;;14.20;100.00;95966.97;5026456;28;19952;-91
2023/05/22 00:45:17;;;;;;;;;;;;;;;14.09;100.00;95963.34;5024366;28;19929;-90
2023/05/22 00:47:45;;;;;;;;;;;;;;;14.02;100.00;95965.47;5027997;28;19944;-91
2023/05/22 00:50:12;;;;;;;;;;;;;;;13.91;100.00;95966.47;5046299;28;20012;-90
2023/05/22 00:52:42;;;;;;;;;;;;;;;13.83;100.00;95972.38;5041941;28;19925;-91
2023/05/22 00:55:10;;;;;;;;;;;;;;;13.86;100.00;95980.03;5042190;28;19953;-90
2023/05/22 00:57:40;;;;;;;;;;;;;;;13.92;100.00;95974.38;5026911;28;19933;-90
2023/05/22 01:00:09;;;;;;;;;;;;;;;13.94;100.00;95972.22;5031599;28;20019;-91
2023/05/22 01:02:38;;;;;;;;;;;;;;;13.90;100.00;95973.81;5029504;28;19925;-90
2023/05/22 01:05:06;;;;;;;;;;;;;;;13.92;100.00;95977.09;5039586;28;20068;-91
2023/05/22 01:07:36;;;;;;;;;;;;;;;13.86;100.00;95982.75;5047849;28;19965;-90
2023/05/22 01:10:04;;;;;;;;;;;;;;;13.82;100.00;95978.88;5044757;28;19929;-91
2023/05/22 01:12:34;;;;;;;;;;;;;;;13.78;100.00;95975.88;5034264;28;19940;-90
2023/05/22 01:15:07;;;;;;;;;;;;;;;13.78;100.00;95983.22;5028677;28;19926;-90
2023/05/22 01:17:39;;;;;;;;;;;;;;;13.66;100.00;95985.28;5042802;28;20026;-89
2023/05/22 01:20:13;;;;;;;;;;;;;;;13.50;100.00;95985.16;5024344;28;19929;-90
2023/05/22 01:22:57;;;;;;;;;;;;;;;13.48;100.00;95981.88;5022669;28;19925;-90
2023/05/22 01:25:39;;;;;;;;;;;;;;;13.44;100.00;95980.72;5027716;28;19933;-91
2023/05/22 01:28:11;;;;;;;;;;;;;;;13.46;100.00;95989.44;5043978;28;19929;-91
2023/05/22 01:30:54;;;;;;;;;;;;;;;13.48;100.00;95981.88;5042441;28;20030;-90
2023/05/22 01:33:24;;;;;;;;;;;;;;;13.54;100.00;95982.72;5043519;28;19932;-90
2023/05/22 01:35:52;;;;;;;;;;;;;;;13.54;100.00;95988.13;5034474;28;19940;-90
2023/05/22 01:38:21;;;;;;;;;;;;;;;13.46;100.00;95984.00;5042309;28;20056;-90
2023/05/22 01:40:48;;;;;;;;;;;;;;;13.39;100.00;95985.28;5030614;28;19925;-89
2023/05/22 01:43:15;;;;;;;;;;;;;;;13.31;100.00;95989.28;5026832;28;19925;-90
2023/05/22 01:45:42;;;;;;;;;;;;;;;13.34;100.00;95983.38;5039201;28;19929;-91
2023/05/22 01:48:11;;;;;;;;;;;;;;;13.35;100.00;95985.00;5026177;28;19925;-90
2023/05/22 01:50:39;;;;;;;;;;;;;;;13.31;100.00;95988.47;5024253;28;19933;-89
2023/05/22 01:53:10;;;;;;;;;;;;;;;13.30;100.00;95987.66;5050746;28;19927;-90
2023/05/22 01:55:44;;;;;;;;;;;;;;;13.31;100.00;95988.47;5043446;28;19940;-91
2023/05/22 01:58:15;;;;;;;;;;;;;;;13.24;100.00;95988.69;5026581;28;19940;-90
2023/05/22 02:00:44;;;;;;;;;;;;;;;13.18;100.00;95987.00;5027923;28;19963;-90
2023/05/22 02:03:16;;;;;;;;;;;;;;;13.20;100.00;95987.53;5034984;28;20001;-90
2023/05/22 02:05:44;;;;;;;;;;;;;;;13.20;100.00;95982.13;5024754;28;19930;-91
2023/05/22 02:08:12;;;;;;;;;;;;;;;13.24;100.00;95984.06;5029443;28;20016;-90
2023/05/22 02:10:41;;;;;;;;;;;;;;;13.34;100.00;95987.97;5026429;28;19979;-91
2023/05/22 02:13:10;;;;;;;;;;;;;;;13.33;100.00;95983.63;5026215;28;19926;-91
2023/05/22 02:15:37;;;;;;;;;;;;;;;13.36;100.00;95981.19;5037877;28;19925;-90
2023/05/22 02:18:09;;;;;;;;;;;;;;;13.37;100.00;95988.25;5038550;28;19968;-90
2023/05/22 02:20:38;;;;;;;;;;;;;;;13.40;100.00;95985.03;5036073;28;20015;-90
2023/05/22 02:23:04;;;;;;;;;;;;;;;13.40;100.00;95979.63;5025271;28;19932;-90
2023/05/22 02:25:31;;;;;;;;;;;;;;;13.42;100.00;95985.63;5022570;28;19925;-91
2023/05/22 02:27:59;;;;;;;;;;;;;;;13.45;100.00;95984.25;5044408;28;20020;-90
2023/05/22 02:30:26;;;;;;;;;;;;;;;13.44;100.00;95978.00;5035882;28;19979;-90
2023/05/22 02:32:56;;;;;;;;;;;;;;;13.48;100.00;95983.75;5031484;28;19987;-91
2023/05/22 02:35:23;;;;;;;;;;;;;;;13.50;100.00;95977.00;5043294;28;19925;-90
2023/05/22 02:37:53;;;;;;;;;;;;;;;13.49;100.00;95975.38;5031117;28;19925;-90
2023/05/22 02:40:20;;;;;;;;;;;;;;;13.42;100.00;95980.19;5034096;28;19925;-90
2023/05/22 02:42:46;;;;;;;;;;;;;;;13.32;100.00;95971.94;5044279;28;19928;-92
2023/05/22 02:45:13;;;;;;;;;;;;;;;13.25;100.00;95969.44;5046534;28;19964;-91
2023/05/22 02:47:41;;;;;;;;;;;;;;;13.21;100.00;95979.16;5022879;28;19929;-91
2023/05/22 02:50:09;;;;;;;;;;;;;;;13.19;100.00;95975.88;5023544;28;19935;-90
2023/05/22 02:52:38;;;;;;;;;;;;;;;13.21;100.00;95968.31;5020245;28;19975;-89
2023/05/22 02:55:08;;;;;;;;;;;;;;;13.25;100.00;95980.28;5044242;28;19925;-90
2023/05/22 02:57:35;;;;;;;;;;;;;;;13.27;100.00;95967.28;5028415;28;19932;-90
2023/05/22 03:00:02;;;;;;;;;;;;;;;13.25;100.00;95974.88;5028864;28;19962;-91
2023/05/22 03:02:31;;;;;;;;;;;;;;;13.28;100.00;95973.53;5045908;28;19929;-90
2023/05/22 03:04:58;;;;;;;;;;;;;;;13.23;100.00;95960.75;5031722;28;19978;-92
2023/05/22 03:07:28;;;;;;;;;;;;;;;13.25;100.00;95964.03;5019038;28;19925;-91
2023/05/22 03:09:55;;;;;;;;;;;;;;;13.31;100.00;95962.16;5029557;28;19933;-91
2023/05/22 03:12:24;;;;;;;;;;;;;;;13.33;100.00;95959.22;5029578;28;19925;-90
2023/05/22 03:14:51;;;;;;;;;;;;;;;13.35;100.00;95957.88;5045858;28;19925;-91
2023/05/22 03:17:18;;;;;;;;;;;;;;;13.34;100.00;95961.66;5019576;28;19956;-90
2023/05/22 03:19:45;;;;;;;;;;;;;;;13.29;100.00;95955.38;5026707;28;19926;-90
2023/05/22 03:22:12;;;;;;;;;;;;;;;13.19;100.00;95958.78;5029220;28;19925;-90
2023/05/22 03:24:39;;;;;;;;;;;;;;;13.15;100.00;95968.53;5044810;28;19971;-89
2023/05/22 03:27:07;;;;;;;;;;;;;;;13.00;100.00;95968.34;5033387;28;19925;-89
2023/05/22 03:29:40;;;;;;;;;;;;;;;12.91;100.00;95961.72;5047438;28;19972;-90
2023/05/22 03:32:07;;;;;;;;;;;;;;;12.86;100.00;95963.28;5031798;28;19987;-90
2023/05/22 03:34:34;;;;;;;;;;;;;;;12.89;100.00;95959.25;5027557;28;19925;-90
2023/05/22 03:37:02;;;;;;;;;;;;;;;12.94;100.00;95963.91;5046905;28;20136;-90
2023/05/22 03:39:29;;;;;;;;;;;;;;;12.95;100.00;95957.41;5034281;28;19996;-91
2023/05/22 03:42:00;;;;;;;;;;;;;;;13.04;100.00;95945.06;5030721;28;19926;-91
2023/05/22 03:44:27;;;;;;;;;;;;;;;13.02;100.00;95947.19;5029508;28;19953;-91
2023/05/22 03:46:56;;;;;;;;;;;;;;;13.02;100.00;95947.19;5037771;28;19975;-90
2023/05/22 03:49:23;;;;;;;;;;;;;;;13.05;100.00;95947.50;5046424;28;19925;-92
2023/05/22 03:51:49;;;;;;;;;;;;;;;13.05;100.00;95954.81;5031748;28;19931;-90
2023/05/22 03:54:16;;;;;;;;;;;;;;;12.91;100.00;95957.13;5033200;28;19940;-90
2023/05/22 03:56:43;;;;;;;;;;;;;;;12.86;100.00;95952.47;5026335;28;20003;-90
2023/05/22 03:59:10;;;;;;;;;;;;;;;12.86;100.00;95955.16;5041229;28;19940;-89
2023/05/22 04:01:38;;;;;;;;;;;;;;;12.83;100.00;95952.16;5045428;28;19936;-90
2023/05/22 04:04:08;;;;;;;;;;;;;;;12.82;100.00;95951.34;5038494;28;19928;-89
2023/05/22 04:06:41;;;;;;;;;;;;;;;12.78;100.00;95952.91;5036652;28;19925;-91
2023/05/22 04:09:10;;;;;;;;;;;;;;;12.73;100.00;95952.03;5025750;28;19926;-92
2023/05/22 04:11:38;;;;;;;;;;;;;;;12.68;100.00;95947.38;5028694;28;19929;-90
2023/05/22 04:14:05;;;;;;;;;;;;;;;12.66;100.00;95952.25;5031927;28;19925;-91
2023/05/22 04:16:32;;;;;;;;;;;;;;;12.52;100.00;95942.84;5029903;28;19971;-90
2023/05/22 04:19:00;;;;;;;;;;;;;;;12.44;100.00;95946.81;5032565;28;19933;-90
2023/05/22 04:21:28;;;;;;;;;;;;;;;12.47;100.00;95950.91;5055298;28;19924;-90
2023/05/22 04:23:55;;;;;;;;;;;;;;;12.49;100.00;95956.91;5043046;28;19928;-89
2023/05/22 04:26:24;;;;;;;;;;;;;;;12.46;100.00;95954.69;5026252;28;19958;-90
2023/05/22 04:28:51;;;;;;;;;;;;;;;12.44;100.00;95963.06;5031062;28;19986;-90
2023/05/22 04:31:21;;;;;;;;;;;;;;;12.44;100.00;95954.94;5029849;28;19929;-90
2023/05/22 04:33:49;;;;;;;;;;;;;;;12.46;100.00;95963.63;5029451;28;19929;-89
2023/05/22 04:36:16;;;;;;;;;;;;;;;12.45;100.00;95963.88;5049581;28;19929;-89
2023/05/22 04:38:46;;;;;;;;;;;;;;;12.41;100.00;95968.16;5045725;28;19925;-89
2023/05/22 04:41:16;;;;;;;;;;;;;;;12.31;100.00;95976.97;5044389;28;19975;-89
2023/05/22 04:43:43;;;;;;;;;;;;;;;12.31;100.00;95965.31;5046671;28;19960;-89
2023/05/22 04:46:10;;;;;;;;;;;;;;;12.34;100.00;95968.34;5041332;28;20013;-91
2023/05/22 04:48:39;;;;;;;;;;;;;;;12.38;100.00;95971.38;5030667;28;19932;-91
2023/05/22 04:51:06;;;;;;;;;;;;;;;12.40;100.00;95967.34;5022758;28;19933;-90
2023/05/22 04:53:33;;;;;;;;;;;;;;;12.45;100.00;95975.53;5030409;28;19955;-90
2023/05/22 04:56:01;;;;;;;;;;;;;;;12.46;100.00;95976.34;5028349;28;19948;-90
2023/05/22 04:58:29;;;;;;;;;;;;;;;12.40;100.00;95983.59;5024512;28;19932;-90
2023/05/22 05:00:56;;;;;;;;;;;;;;;12.40;100.00;95982.78;5029804;28;19929;-90
2023/05/22 05:03:24;;;;;;;;;;;;;;;12.42;100.00;95996.84;5048568;28;19925;-90
2023/05/22 05:05:51;;;;;;;;;;;;;;;12.47;100.00;95991.53;5043605;28;19925;-91
2023/05/22 05:08:18;;;;;;;;;;;;;;;12.50;100.00;95994.53;5027712;28;19925;-89
2023/05/22 05:10:45;;;;;;;;;;;;;;;12.49;100.00;95992.09;5027711;28;19925;-90
2023/05/22 05:13:14;;;;;;;;;;;;;;;12.46;100.00;95990.72;5030654;28;19925;-89
2023/05/22 05:15:40;;;;;;;;;;;;;;;12.47;100.00;95995.06;5043210;28;19925;-90
2023/05/22 05:18:08;;;;;;;;;;;;;;;12.47;100.00;95994.25;5030098;28;19932;-90
2023/05/22 05:20:35;;;;;;;;;;;;;;;12.48;100.00;95998.59;5044502;28;20039;-89
2023/05/22 05:23:02;;;;;;;;;;;;;;;12.41;100.00;96004.19;5023665;28;19932;-89
2023/05/22 05:25:29;;;;;;;;;;;;;;;12.37;100.00;95996.81;5026033;28;19937;-91
2023/05/22 05:27:56;;;;;;;;;;;;;;;12.34;100.00;96000.00;5029256;28;19929;-90
2023/05/22 05:30:25;;;;;;;;;;;;;;;12.29;100.00;96002.66;5028253;28;19932;-90
2023/05/22 05:33:07;;;;;;;;;;;;;;;12.34;100.00;96000.81;5047167;28;19931;-89
2023/05/22 05:36:00;;;;;;;;;;;;;;;12.40;100.00;95999.03;5028408;28;19983;-89
2023/05/22 05:38:28;;;;;;;;;;;;;;;12.47;100.00;96002.38;5046881;28;19932;-91
2023/05/22 05:40:55;;;;;;;;;;;;;;;12.49;100.00;95995.63;5027553;28;20023;-90
2023/05/22 05:43:24;;;;;;;;;;;;;;;12.45;100.00;95985.53;5025898;28;19925;-89
2023/05/22 05:45:52;;;;;;;;;;;;;;;12.46;100.00;95987.19;5027565;28;19926;-91
2023/05/22 05:48:19;;;;;;;;;;;;;;;12.39;100.00;95992.78;5047484;28;19988;-89
2023/05/22 05:50:48;;;;;;;;;;;;;;;12.31;100.00;95995.94;5029833;28;19925;-89
2023/05/22 05:53:15;;;;;;;;;;;;;;;12.35;100.00;95998.94;5023734;28;20020;-91
2023/05/22 05:55:47;;;;;;;;;;;;;;;12.32;100.00;96004.88;5030230;28;19929;-89
2023/05/22 05:58:14;;;;;;;;;;;;;;;12.36;100.00;96000.56;5028990;28;19940;-90
2023/05/22 06:01:00;;;;;;;;;;;;;;;12.40;100.00;96001.72;5024922;28;20165;-90
2023/05/22 06:03:27;;;;;;;;;;;;;;;12.42;100.00;95996.84;5038055;28;19971;-89
2023/05/22 06:06:11;;;;;;;;;;;;;;;12.41;100.00;95995.25;5046576;28;19929;-90
2023/05/22 06:09:05;;;;;;;;;;;;;;;12.39;100.00;95991.97;5028100;28;19929;-89
2023/05/22 06:11:36;;;;;;;;;;;;;;;12.47;100.00;95996.94;5039452;28;20020;-91
2023/05/22 06:14:04;;;;;;;;;;;;;;;12.47;100.00;95992.34;5046556;28;19929;-90
2023/05/22 06:16:33;;;;;;;;;;;;;;;12.53;100.00;95985.09;5027533;28;20010;-89
2023/05/22 06:19:00;;;;;;;;;;;;;;;12.56;100.00;95992.75;5045655;28;20055;-89
2023/05/22 06:21:26;;;;;;;;;;;;;;;12.63;100.00;95993.38;5025900;28;19955;-89
2023/05/22 06:23:53;;;;;;;;;;;;;;;12.71;100.00;95995.63;5041065;28;19957;-90
2023/05/22 06:26:21;;;;;;;;;;;;;;;12.73;100.00;95992.69;5026314;28;19929;-91
2023/05/22 06:28:50;;;;;;;;;;;;;;;12.76;100.00;95994.91;5049768;28;19929;-90
2023/05/22 06:31:18;;;;;;;;;;;;;;;12.74;100.00;95989.72;5028321;28;19969;-90
2023/05/22 06:33:51;;;;;;;;;;;;;;;12.70;100.00;95982.34;5040825;28;19940;-90
2023/05/22 06:36:21;;;;;;;;;;;;;;;12.73;100.00;95976.41;5023271;28;19926;-95
2023/05/22 06:38:48;;;;;;;;;;;;;;;12.74;100.00;95976.19;5025346;28;19925;-92
2023/05/22 06:41:46;;;;;;;;;;;;;;;12.69;100.00;95976.09;5036669;28;19932;-91
2023/05/22 06:44:14;;;;;;;;;;;;;;;12.72;100.00;95974.78;5038150;28;19932;-90
2023/05/22 06:46:42;;;;;;;;;;;;;;;12.75;100.00;95972.41;5051298;28;19965;-89
2023/05/22 06:49:13;;;;;;;;;;;;;;;12.82;100.00;95975.72;5031426;28;19929;-90
2023/05/22 06:51:49;;;;;;;;;;;;;;;12.89;100.00;95975.53;5029471;28;19929;-90
2023/05/22 06:54:18;;;;;;;;;;;;;;;12.99;100.00;95975.66;5052739;28;19925;-92
2023/05/22 06:56:49;;;;;;;;;;;;;;;13.03;100.00;95981.34;5042631;28;19940;-91
2023/05/22 06:59:19;;;;;;;;;;;;;;;13.04;100.00;95964.03;5049511;28;20011;-89
2023/05/22 07:02:13;;;;;;;;;;;;;;;13.11;100.00;95970.06;5003039;28;19937;-92
2023/05/22 07:05:02;;;;;;;;;;;;;;;13.13;100.00;95970.63;5036680;28;20063;-90
2023/05/22 07:07:41;;;;;;;;;;;;;;;13.18;100.00;95968.03;5048203;28;20027;-91
2023/05/22 07:10:08;;;;;;;;;;;;;;;13.32;100.00;95968.41;5043912;28;19925;-90
2023/05/22 07:12:35;;;;;;;;;;;;;;;13.78;100.00;95970.44;5034603;28;19940;-90
2023/05/22 07:15:03;;;;;;;;;;;;;;;14.28;100.00;95971.91;5053162;28;19925;-89
2023/05/22 07:17:32;;;;;;;;;;;;;;;14.71;100.00;95982.47;5039413;28;19979;-91
2023/05/22 07:19:59;;;;;;;;;;;;;;;15.12;100.00;95977.19;5028741;28;19926;-91
2023/05/22 07:22:27;;;;;;;;;;;;;;;15.55;100.00;95978.66;5029970;28;19925;-91
2023/05/22 07:24:56;;;;;;;;;;;;;;;15.87;100.00;95973.78;5038630;28;19932;-90
2023/05/22 07:27:27;;;;;;;;;;;;;;;16.15;100.00;95977.84;5041186;28;19925;-90
2023/05/22 07:29:54;;;;;;;;;;;;;;;16.53;100.00;95972.84;5044561;28;20008;-89
2023/05/22 07:32:21;;;;;;;;;;;;;;;16.69;100.00;95971.75;5038020;28;19975;-91
2023/05/22 07:34:48;;;;;;;;;;;;;;;16.81;100.00;95976.91;5032681;28;19926;-88
2023/05/22 07:37:15;;;;;;;;;;;;;;;16.97;100.00;95967.56;5033791;28;19925;-91
2023/05/22 07:39:47;;;;;;;;;;;;;;;17.26;100.00;95973.97;5035215;28;19931;-90
2023/05/22 07:42:16;;;;;;;;;;;;;;;17.49;100.00;95968.91;5028985;28;19925;-89
2023/05/22 07:44:49;;;;;;;;;;;;;;;17.78;99.67;95978.00;5049618;28;19924;-90
2023/05/22 07:47:17;;;;;;;;;;;;;;;17.96;99.38;95971.03;5045147;28;19980;-90
2023/05/22 07:49:44;;;;;;;;;;;;;;;18.11;100.00;95969.00;5034383;28;19980;-91
2023/05/22 07:52:12;;;;;;;;;;;;;;;18.43;98.96;95971.16;5040910;28;19929;-89
2023/05/22 07:54:39;;;;;;;;;;;;;;;18.74;89.56;95960.72;5027794;28;19975;-90
2023/05/22 07:57:11;;;;;;;;;;;;;;;19.10;87.03;95966.56;5043683;28;19931;-89
2023/05/22 07:59:39;;;;;;;;;;;;;;;19.43;87.81;95961.19;5028588;28;19991;-91
2023/05/22 08:02:07;;;;;;;;;;;;;;;19.69;86.84;95965.22;5030792;28;19925;-90
2023/05/22 08:04:34;;;;;;;;;;;;;;;19.92;83.01;95961.56;5045828;28;20011;-90
2023/05/22 08:07:01;;;;;;;;;;;;;;;20.05;79.35;95957.25;5027814;28;19960;-89
2023/05/22 08:09:28;;;;;;;;;;;;;;;20.06;77.73;95958.06;5045245;28;19972;-89
2023/05/22 08:11:55;;;;;;;;;;;;;;;20.19;79.07;95949.06;5024831;28;19933;-91
2023/05/22 08:14:23;;;;;;;;;;;;;;;20.35;79.29;95944.97;5028327;28;19936;-92
2023/05/22 08:16:50;;;;;;;;;;;;;;;20.50;73.00;95952.13;5026811;28;19925;-88
2023/05/22 08:19:17;;;;;;;;;;;;;;;20.57;71.23;95942.38;5029241;28;19925;-89
2023/05/22 08:21:44;;;;;;;;;;;;;;;20.63;71.19;95951.31;5040290;28;19932;-90
2023/05/22 08:24:10;;;;;;;;;;;;;;;20.70;71.00;95946.22;5024771;28;19926;-89
2023/05/22 08:26:38;;;;;;;;;;;;;;;20.91;71.14;95950.22;5035297;28;19925;-90
2023/05/22 08:29:05;;;;;;;;;;;;;;;21.10;68.93;95942.66;5029118;28;19975;-89
2023/05/22 08:31:34;;;;;;;;;;;;;;;21.25;68.34;95946.25;5018555;28;19932;-90
2023/05/22 08:34:03;;;;;;;;;;;;;;;21.20;69.11;95944.41;5031895;28;19941;-89
2023/05/22 08:36:30;;;;;;;;;;;;;;;20.97;72.08;95942.69;5019985;28;20025;-88
2023/05/22 08:38:57;;;;;;;;;;;;;;;21.09;73.40;95941.06;5022678;28;19932;-91
2023/05/22 08:41:24;;;;;;;;;;;;;;;21.31;71.96;95939.50;5040895;28;19931;-88
2023/05/22 08:43:51;;;;;;;;;;;;;;;21.19;71.53;95936.47;5030197;28;19932;-90
2023/05/22 08:46:18;;;;;;;;;;;;;;;21.47;71.84;95936.13;5018171;28;19926;-90
2023/05/22 08:48:47;;;;;;;;;;;;;;;21.53;70.49;95934.88;5025750;28;19925;-89
2023/05/22 08:51:18;;;;;;;;;;;;;;;21.73;71.27;95933.59;5045420;28;19929;-90
2023/05/22 08:53:45;;;;;;;;;;;;;;;21.83;70.41;95930.59;5024542;28;20056;-90
2023/05/22 08:56:12;;;;;;;;;;;;;;;22.02;69.65;95933.19;5041472;28;20011;-89
2023/05/22 08:58:39;;;;;;;;;;;;;;;22.16;70.04;95930.38;5036788;28;19965;-89
2023/05/22 09:01:06;;;;;;;;;;;;;;;22.14;68.19;95925.19;5027046;28;19972;-89
2023/05/22 09:03:35;;;;;;;;;;;;;;;22.30;68.40;95927.53;5025619;28;19971;-89
2023/05/22 09:06:09;;;;;;;;;;;;;;;22.15;67.25;95931.50;5023396;28;19981;-90
2023/05/22 09:08:37;;;;;;;;;;;;;;;22.19;67.22;95924.25;5028768;28;19995;-89
2023/05/22 09:11:04;;;;;;;;;;;;;;;22.36;67.71;95927.09;5029780;28;19990;-89
2023/05/22 09:13:31;;;;;;;;;;;;;;;22.40;68.46;95930.00;5018846;28;20029;-89
2023/05/22 09:15:59;;;;;;;;;;;;;;;22.34;66.27;95923.03;5027405;28;19964;-89
2023/05/22 09:18:29;;;;;;;;;;;;;;;22.41;66.34;95924.22;5024951;28;19952;-90
2023/05/22 09:21:01;;;;;;;;;;;;;;;22.50;68.71;95922.31;5026551;28;19955;-91
2023/05/22 09:23:31;;;;;;;;;;;;;;;22.63;67.83;95921.38;5024802;28;19951;-90
2023/05/22 09:25:58;;;;;;;;;;;;;;;22.67;67.35;95918.81;5024281;28;19996;-89
2023/05/22 09:28:25;;;;;;;;;;;;;;;22.77;67.89;95921.34;5027482;28;19947;-89
2023/05/22 09:30:53;;;;;;;;;;;;;;;22.90;67.18;95925.91;5041761;28;20002;-89
2023/05/22 09:33:20;;;;;;;;;;;;;;;22.91;68.46;95915.69;5026998;28;20066;-90
2023/05/22 09:35:48;;;;;;;;;;;;;;;22.99;68.40;95923.97;5041781;28;20190;-88
2023/05/22 09:38:15;;;;;;;;;;;;;;;23.08;66.77;95925.94;5027421;28;20001;-90
2023/05/22 09:40:43;;;;;;;;;;;;;;;23.19;65.93;95922.59;5043284;28;19948;-90
2023/05/22 09:43:10;;;;;;;;;;;;;;;23.24;66.09;95910.59;5026308;28;19946;-89
2023/05/22 09:45:38;;;;;;;;;;;;;;;23.26;66.09;95911.91;5026622;28;19961;-90
2023/05/22 09:48:06;;;;;;;;;;;;;;;23.25;66.93;95914.97;5019249;28;19968;-89
2023/05/22 09:50:32;;;;;;;;;;;;;;;23.28;65.87;95914.34;5024605;28;19960;-89
2023/05/22 09:53:01;;;;;;;;;;;;;;;23.26;67.97;95917.41;5027344;28;20002;-88
2023/05/22 09:55:28;;;;;;;;;;;;;;;23.26;68.88;95906.41;5041840;28;19944;-88
2023/05/22 09:57:57;;;;;;;;;;;;;;;23.39;68.29;95905.44;5022567;28;20012;-88
2023/05/22 10:00:25;;;;;;;;;;;;;;;23.44;67.84;95903.66;5027642;28;19984;-88
2023/05/22 10:02:53;;;;;;;;;;;;;;;23.44;68.45;95900.91;5025653;28;19975;-89
2023/05/22 10:05:21;;;;;;;;;;;;;;;23.37;66.90;95899.44;5025418;28;19970;-90
2023/05/22 10:07:49;;;;;;;;;;;;;;;23.33;68.04;95892.94;5029799;28;20166;-88
2023/05/22 10:10:17;;;;;;;;;;;;;;;23.37;67.06;95893.94;5035640;28;19948;-89
2023/05/22 10:12:48;;;;;;;;;;;;;;;23.55;66.65;95877.44;5045110;28;19952;-90
2023/05/22 10:15:17;;;;;;;;;;;;;;;23.53;68.13;95876.97;5028940;28;20086;-88
2023/05/22 10:17:44;;;;;;;;;;;;;;;23.54;68.42;95873.88;5028362;28;19964;-91
2023/05/22 10:20:12;;;;;;;;;;;;;;;23.64;68.55;95883.78;5047762;28;19950;-89
2023/05/22 10:22:39;;;;;;;;;;;;;;;23.66;67.91;95876.78;5042248;28;19949;-89
2023/05/22 10:25:06;;;;;;;;;;;;;;;23.71;69.30;95871.13;5016956;28;19991;-90
2023/05/22 10:27:33;;;;;;;;;;;;;;;23.70;69.34;95868.69;5036241;28;19958;-88
2023/05/22 10:30:03;;;;;;;;;;;;;;;23.74;69.36;95872.41;5024909;28;19951;-91
2023/05/22 10:32:39;;;;;;;;;;;;;;;23.69;68.95;95870.63;5042438;28;19957;-88
2023/05/22 10:35:11;;;;;;;;;;;;;;;23.70;69.24;95865.94;5042836;28;19975;-89
2023/05/22 10:37:45;;;;;;;;;;;;;;;23.68;69.29;95857.16;5043542;28;19966;-89
2023/05/22 10:40:14;;;;;;;;;;;;;;;23.91;72.07;95855.84;5029361;28;19952;-89
2023/05/22 10:42:42;;;;;;;;;;;;;;;24.21;70.28;95847.69;5042850;28;19953;-89
2023/05/22 10:45:09;;;;;;;;;;;;;;;24.28;68.36;95857.09;5032668;28;20040;-90
2023/05/22 10:47:37;;;;;;;;;;;;;;;24.52;69.17;95853.75;5022541;28;19951;-88
2023/05/22 10:50:06;;;;;;;;;;;;;;;24.71;68.24;95848.63;5044395;28;20056;-89
2023/05/22 10:52:33;;;;;;;;;;;;;;;24.75;66.32;95846.81;5027632;28;19969;-90
2023/05/22 10:55:02;;;;;;;;;;;;;;;24.82;66.58;95851.81;5024598;28;19947;-89
2023/05/22 10:57:33;;;;;;;;;;;;;;;24.74;65.30;95849.91;5028439;28;19970;-89
2023/05/22 11:00:08;;;;;;;;;;;;;;;24.83;64.90;95851.50;5042206;28;20007;-92
2023/05/22 11:02:38;;;;;;;;;;;;;;;24.93;64.60;95846.75;5025275;28;19949;-88
2023/05/22 11:05:27;;;;;;;;;;;;;;;24.66;65.84;95837.78;5036320;28;19973;-89
2023/05/22 11:08:08;;;;;;;;;;;;;;;24.33;64.88;95853.34;5023383;28;19974;-89
2023/05/22 11:10:50;;;;;;;;;;;;;;;24.14;67.58;95843.47;5027086;28;19957;-90
2023/05/22 11:13:17;;;;;;;;;;;;;;;23.99;66.91;95851.44;5043414;28;19972;-89
2023/05/22 11:15:45;;;;;;;;;;;;;;;23.83;65.17;95848.38;5024859;28;19947;-90
2023/05/22 11:18:14;;;;;;;;;;;;;;;23.80;67.10;95843.53;5042636;28;19966;-89
2023/05/22 11:20:41;;;;;;;;;;;;;;;23.89;68.82;95838.81;5017296;28;19948;-89
2023/05/22 11:23:08;;;;;;;;;;;;;;;24.09;70.22;95840.06;5029137;28;19958;-89
2023/05/22 11:25:37;;;;;;;;;;;;;;;24.23;68.94;95842.66;5031125;28;19945;-89
2023/05/22 11:28:04;;;;;;;;;;;;;;;24.40;62.64;95835.13;5046558;28;19966;-89
2023/05/22 11:30:31;;;;;;;;;;;;;;;24.47;64.49;95845.66;5026422;28;19954;-91
2023/05/22 11:32:59;;;;;;;;;;;;;;;24.52;62.93;95839.94;5030367;28;20028;-89
2023/05/22 11:35:29;;;;;;;;;;;;;;;24.50;63.87;95833.94;5030810;28;19978;-89
2023/05/22 11:37:57;;;;;;;;;;;;;;;24.59;64.09;95840.22;5047367;28;19961;-88
2023/05/22 11:40:25;;;;;;;;;;;;;;;24.70;63.82;95837.91;5030752;28;19953;-91
2023/05/22 11:42:52;;;;;;;;;;;;;;;24.75;62.87;95848.78;5028884;28;20049;-88
2023/05/22 11:45:19;;;;;;;;;;;;;;;24.77;63.10;95841.75;5026726;28;19948;-88
2023/05/22 11:47:47;;;;;;;;;;;;;;;24.77;61.55;95839.00;5025686;28;19957;-89
2023/05/22 11:50:14;;;;;;;;;;;;;;;25.10;61.62;95830.06;5015090;28;19973;-88
2023/05/22 11:52:44;;;;;;;;;;;;;;;25.60;60.82;95828.06;5028712;28;19990;-88
2023/05/22 11:55:11;;;;;;;;;;;;;;;25.88;57.14;95825.53;5028819;28;20041;-91
2023/05/22 11:57:39;;;;;;;;;;;;;;;25.87;56.34;95825.88;5044175;28;19971;-89
2023/05/22 12:00:07;;;;;;;;;;;;;;;26.04;56.95;95828.47;5025250;28;19925;-90
2023/05/22 12:02:44;;;;;;;;;;;;;;;26.03;55.53;95824.06;5025889;28;20057;-90
2023/05/22 12:05:11;;;;;;;;;;;;;;;25.93;56.47;95824.53;5024919;28;20019;-89
2023/05/22 12:07:38;;;;;;;;;;;;;;;25.87;56.62;95823.09;5028252;28;20036;-91
2023/05/22 12:10:07;;;;;;;;;;;;;;;25.81;56.95;95816.19;5021352;28;19929;-90
2023/05/22 12:12:33;;;;;;;;;;;;;;;25.89;57.22;95807.78;5039423;28;19925;-89
2023/05/22 12:15:00;;;;;;;;;;;;;;;26.09;56.99;95816.38;5018432;28;19925;-89
2023/05/22 12:17:28;;;;;;;;;;;;;;;26.40;54.07;95813.13;5016309;28;19963;-89
2023/05/22 12:19:56;;;;;;;;;;;;;;;26.62;52.34;95807.16;5043622;28;19950;-89
2023/05/22 12:22:25;;;;;;;;;;;;;;;26.77;50.67;95803.69;5021589;28;19932;-89
2023/05/22 12:24:54;;;;;;;;;;;;;;;27.09;53.04;95807.47;5040055;28;19973;-89
2023/05/22 12:27:22;;;;;;;;;;;;;;;27.23;51.87;95805.13;5027000;28;19932;-90
2023/05/22 12:29:51;;;;;;;;;;;;;;;27.39;50.06;95802.47;5030468;28;19928;-89
2023/05/22 12:32:21;;;;;;;;;;;;;;;27.45;49.76;95795.50;5028161;28;19925;-90
2023/05/22 12:34:49;;;;;;;;;;;;;;;27.25;49.77;95804.78;5027223;28;19986;-89
2023/05/22 12:37:23;;;;;;;;;;;;;;;27.13;49.40;95802.06;5045191;28;19964;-87
2023/05/22 12:39:55;;;;;;;;;;;;;;;26.98;49.79;95801.59;5034133;28;19964;-89
2023/05/22 12:42:23;;;;;;;;;;;;;;;26.97;49.96;95799.16;5021391;28;19983;-90
2023/05/22 12:44:51;;;;;;;;;;;;;;;26.78;50.06;95799.75;5022370;28;19947;-91
2023/05/22 12:47:18;;;;;;;;;;;;;;;26.65;52.41;95800.91;5044073;28;19958;-89
2023/05/22 12:49:45;;;;;;;;;;;;;;;26.71;52.50;95794.00;5030774;28;19929;-88